Time;durP1;ratioP1;P1;durP2;ratioP2;P2;SDS_P1;SDS_P2;PMS_P1;PMS_P2;Temp;Humidity;BMP_temperature;BMP_pressure;BME280_temperature;BME280_humidity;BME280_pressure;Samples;Min_cycle;Max_cycle;Signal;HPM_P1;HPM_P2
2022/12/15 00:40:37;;;;;;;22.92;12.48;;;;;;;-5.15;72.32;100580.28;5098496;28;20058;-91
2022/12/15 00:43:03;;;;;;;26.58;13.43;;;;;;;-5.03;72.30;100591.69;5104360;28;20036;-91
2022/12/15 00:48:12;;;;;;;28.50;13.48;;;;;;;-5.01;72.95;100590.84;5097597;28;20055;-91
2022/12/15 00:50:52;;;;;;;26.55;12.73;;;;;;;-5.09;72.81;100570.91;5075391;28;20075;-91
2022/12/15 01:20:42;;;;;;;25.27;13.25;;;;;;;-5.22;74.25;100604.22;5095838;28;20124;-92
2022/12/15 01:23:08;;;;;;;27.50;14.40;;;;;;;-5.26;73.82;100588.66;5099477;28;20028;-92
2022/12/15 01:25:33;;;;;;;26.00;13.15;;;;;;;-5.27;73.74;100590.38;5075607;28;20067;-92
2022/12/15 01:27:58;;;;;;;27.45;13.90;;;;;;;-5.38;73.50;100573.81;5100052;28;20451;-91
2022/12/15 01:30:25;;;;;;;29.55;13.60;;;;;;;-5.24;73.12;100599.84;5079490;28;20032;-92
2022/12/15 01:32:52;;;;;;;26.67;13.93;;;;;;;-5.24;73.69;100605.00;5085644;28;20031;-93
2022/12/15 01:35:18;;;;;;;25.98;13.40;;;;;;;-5.31;73.72;100588.56;5097408;28;20457;-92
2022/12/15 01:37:44;;;;;;;30.48;14.07;;;;;;;-5.36;73.43;100577.31;5081753;28;20028;-92
2022/12/15 01:43:00;;;;;;;22.95;13.05;;;;;;;-5.20;73.80;100610.25;5108533;28;20298;-92
2022/12/15 01:45:25;;;;;;;27.85;13.35;;;;;;;-5.18;73.46;100612.84;5108426;28;20035;-91
2022/12/15 01:47:53;;;;;;;27.15;14.07;;;;;;;-5.45;72.50;100583.13;5083660;28;20169;-91
2022/12/15 01:50:20;;;;;;;26.23;13.90;;;;;;;-5.39;73.07;100616.72;5100253;28;20044;-92
2022/12/15 01:52:46;;;;;;;31.15;15.43;;;;;;;-5.38;74.28;100615.88;5085487;28;20122;-91
2022/12/15 01:55:12;;;;;;;31.83;15.73;;;;;;;-5.38;73.92;100620.19;5094961;28;20020;-92
2022/12/15 01:57:38;;;;;;;28.20;13.70;;;;;;;-5.53;73.57;100604.41;5078867;28;20393;-91
2022/12/15 02:00:07;;;;;;;29.52;15.10;;;;;;;-5.43;74.08;100625.22;5088258;28;20027;-91
2022/12/15 02:02:35;;;;;;;28.98;12.85;;;;;;;-5.57;73.51;100624.06;5084792;28;20027;-91
2022/12/15 02:05:02;;;;;;;30.70;14.10;;;;;;;-5.55;73.65;100625.00;5084706;28;20035;-92
2022/12/15 02:07:27;;;;;;;27.13;14.43;;;;;;;-5.56;73.82;100623.22;5098434;28;20065;-91
2022/12/15 02:09:55;;;;;;;25.95;12.18;;;;;;;-5.47;73.31;100644.03;5083186;28;20060;-91
2022/12/15 02:12:32;;;;;;;25.02;12.52;;;;;;;-5.48;73.80;100649.16;5077263;28;20032;-91
2022/12/15 02:15:19;;;;;;;26.00;14.00;;;;;;;-5.52;73.48;100640.50;5078721;28;20031;-92
2022/12/15 02:18:16;;;;;;;30.15;14.50;;;;;;;-5.58;73.93;100636.94;5088999;28;20026;-91
2022/12/15 02:21:00;;;;;;;25.80;13.27;;;;;;;-5.53;73.63;100651.63;5080192;28;20664;-91
2022/12/15 02:24:13;;;;;;;30.63;14.63;;;;;;;-5.60;73.75;100654.03;5074125;28;20380;-91
2022/12/15 02:27:06;;;;;;;24.02;12.93;;;;;;;-5.65;73.42;100654.78;5087853;28;20321;-92
2022/12/15 02:29:47;;;;;;;27.60;14.02;;;;;;;-5.64;73.62;100653.13;5083345;28;20536;-92
2022/12/15 02:32:24;;;;;;;27.77;13.88;;;;;;;-5.69;73.77;100632.41;5080549;28;20102;-91
2022/12/15 02:34:54;;;;;;;23.55;13.27;;;;;;;-5.52;74.19;100663.66;5092770;28;20034;-92
2022/12/15 02:37:26;;;;;;;28.00;13.63;;;;;;;-5.58;73.59;100655.81;5081325;28;20028;-91
2022/12/15 02:39:51;;;;;;;31.58;13.80;;;;;;;-5.69;73.91;100636.66;5097769;28;20363;-92
2022/12/15 02:42:17;;;;;;;22.48;13.57;;;;;;;-5.62;73.39;100656.59;5091933;28;20054;-92
2022/12/15 02:45:18;;;;;;;23.63;13.32;;;;;;;-5.58;74.07;100662.69;5080639;28;20502;-92
2022/12/15 02:48:12;;;;;;;33.17;15.18;;;;;;;-5.74;73.95;100641.72;5082784;28;20091;-92
2022/12/15 02:50:58;;;;;;;28.02;13.40;;;;;;;-5.68;73.79;100651.31;5080395;28;20082;-91
2022/12/15 02:54:00;;;;;;;27.48;13.50;;;;;;;-5.70;73.32;100651.25;5074341;28;20043;-92
2022/12/15 02:56:42;;;;;;;33.08;14.13;;;;;;;-5.69;73.86;100649.53;5081822;28;20537;-91
2022/12/15 02:59:28;;;;;;;27.13;13.35;;;;;;;-5.67;74.32;100653.91;5084342;28;20370;-92
2022/12/15 03:01:59;;;;;;;26.02;12.27;;;;;;;-5.71;73.51;100638.34;5081947;28;20020;-91
2022/12/15 03:04:25;;;;;;;28.85;14.45;;;;;;;-5.71;73.09;100646.06;5078095;28;20316;-92
2022/12/15 03:06:59;;;;;;;26.13;13.20;;;;;;;-5.71;73.35;100646.06;5084107;28;20031;-92
2022/12/15 03:09:24;;;;;;;29.55;13.93;;;;;;;-5.65;73.43;100654.78;5082034;28;20023;-92
2022/12/15 03:11:49;;;;;;;30.77;15.25;;;;;;;-5.69;73.61;100659.84;5078149;28;20378;-92
2022/12/15 03:14:15;;;;;;;28.30;14.98;;;;;;;-5.78;73.16;100650.22;5076593;28;20048;-91
2022/12/15 03:16:40;;;;;;;29.27;15.05;;;;;;;-5.76;74.39;100658.84;5080370;28;20024;-91
2022/12/15 03:19:05;;;;;;;30.02;14.63;;;;;;;-5.81;74.14;100657.88;5085912;28;20459;-91
2022/12/15 03:21:31;;;;;;;29.05;14.18;;;;;;;-5.86;73.30;100656.03;5082409;28;20031;-91
2022/12/15 03:23:56;;;;;;;29.85;13.60;;;;;;;-5.83;73.58;100677.53;5100705;28;20027;-91
2022/12/15 03:26:21;;;;;;;27.00;14.40;;;;;;;-5.89;73.18;100661.97;5085068;28;20023;-92
2022/12/15 03:28:46;;;;;;;23.08;12.25;;;;;;;-5.94;72.74;100650.72;5075645;28;20024;-91
2022/12/15 03:31:12;;;;;;;28.52;13.98;;;;;;;-5.92;73.00;100665.38;5102481;28;20036;-91
2022/12/15 03:33:37;;;;;;;29.10;13.95;;;;;;;-5.88;73.05;100673.13;5087418;28;20016;-91
2022/12/15 03:36:03;;;;;;;26.55;13.27;;;;;;;-5.97;72.87;100669.56;5086482;28;20027;-91
2022/12/15 03:38:29;;;;;;;28.83;14.65;;;;;;;-5.93;73.66;100671.34;5086929;28;20043;-91
2022/12/15 03:40:54;;;;;;;27.33;14.07;;;;;;;-5.91;73.29;100679.97;5077685;28;20060;-91
2022/12/15 03:43:19;;;;;;;28.23;13.40;;;;;;;-5.91;73.17;100682.53;5073980;28;20032;-91
2022/12/15 03:45:45;;;;;;;31.17;13.95;;;;;;;-6.04;73.30;100657.38;5081188;28;20562;-91
2022/12/15 03:48:10;;;;;;;29.58;13.45;;;;;;;-6.03;73.49;100659.09;5076203;28;20012;-91
2022/12/15 03:50:36;;;;;;;26.65;13.65;;;;;;;-6.05;73.48;100657.34;5070302;28;20048;-91
2022/12/15 03:53:03;;;;;;;24.58;13.52;;;;;;;-5.97;73.61;100677.28;5066510;28;20472;-92
2022/12/15 03:55:29;;;;;;;26.40;13.43;;;;;;;-6.09;73.53;100665.81;5055352;28;20066;-92
2022/12/15 03:57:55;;;;;;;31.02;14.65;;;;;;;-5.95;73.53;100691.03;5066196;28;20028;-92
2022/12/15 04:00:22;;;;;;;28.70;14.30;;;;;;;-5.88;73.33;100699.72;5056446;28;20100;-92
2022/12/15 04:02:47;;;;;;;27.08;14.45;;;;;;;-5.96;74.12;100680.72;5072819;28;20028;-92
2022/12/15 04:05:18;;;;;;;32.08;15.57;;;;;;;-5.92;74.56;100677.38;5070544;28;20028;-91
2022/12/15 04:07:43;;;;;;;31.98;14.55;;;;;;;-5.96;74.54;100671.28;5078512;28;20036;-91
2022/12/15 04:10:10;;;;;;;25.63;14.07;;;;;;;-5.94;74.05;100674.75;5054858;28;20104;-92
2022/12/15 04:12:38;;;;;;;32.60;15.32;;;;;;;-5.91;74.31;100679.09;5072777;28;20729;-92
2022/12/15 04:15:04;;;;;;;27.50;13.70;;;;;;;-5.95;74.01;100673.03;5076529;28;20487;-90
2022/12/15 04:17:30;;;;;;;29.98;14.88;;;;;;;-5.98;74.51;100670.38;5057239;28;20035;-92
2022/12/15 04:20:10;;;;;;;25.58;14.05;;;;;;;-5.92;74.64;100680.84;5054373;28;20021;-91
2022/12/15 04:22:41;;;;;;;24.58;12.20;;;;;;;-5.96;74.70;100670.44;5060562;28;20028;-92
2022/12/15 05:33:53;;;;;;;25.75;13.30;;;;;;;-6.12;74.65;100719.75;5106402;28;20051;-90
2022/12/15 05:36:19;;;;;;;33.75;15.90;;;;;;;-6.21;74.08;100721.25;5085489;28;20038;-91
2022/12/15 05:38:47;;;;;;;27.52;12.93;;;;;;;-6.28;74.32;100705.66;5087949;28;20023;-91
2022/12/15 05:41:12;;;;;;;28.10;13.20;;;;;;;-6.30;74.16;100704.72;5094655;28;20043;-91
2022/12/15 05:43:37;;;;;;;27.20;13.43;;;;;;;-6.24;74.75;100712.63;5086934;28;20045;-90
2022/12/15 05:46:03;;;;;;;27.80;14.68;;;;;;;-6.30;75.00;100707.28;5080395;28;20630;-91
2022/12/15 05:48:28;;;;;;;27.80;13.60;;;;;;;-6.38;75.23;100707.13;5080004;28;20016;-90
2022/12/15 05:50:54;;;;;;;27.27;13.98;;;;;;;-6.37;75.18;100706.28;5079027;28;20098;-91
2022/12/15 05:53:19;;;;;;;32.28;16.50;;;;;;;-6.34;75.73;100723.47;5075579;28;20055;-91
2022/12/15 05:55:44;;;;;;;36.28;15.02;;;;;;;-6.36;75.40;100731.16;5080850;28;20072;-90
2022/12/15 05:58:09;;;;;;;28.63;15.35;;;;;;;-6.38;75.46;100732.84;5100319;28;20024;-90
2022/12/15 06:00:35;;;;;;;28.95;14.60;;;;;;;-6.41;75.16;100722.47;5082683;28;20103;-90
2022/12/15 06:03:01;;;;;;;27.95;15.10;;;;;;;-6.38;74.91;100726.81;5106885;28;20474;-90
2022/12/15 06:05:27;;;;;;;34.10;14.00;;;;;;;-6.33;74.66;100738.97;5088627;28;20478;-90
2022/12/15 06:07:52;;;;;;;29.00;14.35;;;;;;;-6.38;74.32;100725.13;5078443;28;20169;-91
2022/12/15 06:10:17;;;;;;;28.10;14.35;;;;;;;-6.37;74.43;100736.28;5098530;28;20055;-90
2022/12/15 06:12:42;;;;;;;32.08;16.27;;;;;;;-6.37;74.91;100736.28;5078844;28;20055;-90
2022/12/15 06:15:08;;;;;;;34.15;15.48;;;;;;;-6.44;75.06;100719.78;5081458;28;20136;-91
2022/12/15 06:17:34;;;;;;;25.27;13.63;;;;;;;-6.49;75.21;100727.38;5081648;28;20024;-90
2022/12/15 06:19:59;;;;;;;32.58;14.02;;;;;;;-6.38;75.10;100747.41;5080126;28;20038;-91
2022/12/15 06:22:26;;;;;;;28.65;14.32;;;;;;;-6.49;75.42;100723.94;5081906;28;20096;-90
2022/12/15 06:24:51;;;;;;;36.13;15.85;;;;;;;-6.43;75.59;100740.44;5094790;28;20028;-91
2022/12/15 06:27:17;;;;;;;32.40;14.65;;;;;;;-6.46;75.68;100740.34;5077997;28;20592;-90
2022/12/15 06:29:42;;;;;;;30.17;15.13;;;;;;;-6.44;75.48;100743.81;5085088;28;20035;-90
2022/12/15 06:32:07;;;;;;;27.90;15.13;;;;;;;-6.47;75.36;100751.47;5093315;28;20034;-90
2022/12/15 06:34:33;;;;;;;30.52;13.90;;;;;;;-6.53;75.53;100742.69;5085940;28;20031;-90
2022/12/15 06:36:58;;;;;;;32.78;14.90;;;;;;;-6.53;75.78;100748.72;5087666;28;20104;-90
2022/12/15 06:39:23;;;;;;;35.08;17.30;;;;;;;-6.58;76.01;100742.56;5080485;28;20023;-90
2022/12/15 06:41:48;;;;;;;28.70;14.93;;;;;;;-6.60;76.18;100744.22;5083646;28;20024;-90
2022/12/15 06:44:15;;;;;;;32.05;16.60;;;;;;;-6.49;76.53;100762.50;5084371;28;20480;-90
2022/12/15 06:46:41;;;;;;;34.80;15.48;;;;;;;-6.53;75.63;100758.13;5085626;28;20068;-90
2022/12/15 06:49:07;;;;;;;30.90;15.05;;;;;;;-6.57;75.95;100751.19;5083471;28;20451;-90
2022/12/15 06:51:33;;;;;;;25.92;13.20;;;;;;;-6.65;76.01;100742.38;5085854;28;20048;-90
2022/12/15 06:53:58;;;;;;;24.50;13.90;;;;;;;-6.62;75.46;100763.91;5077810;28;20122;-90
2022/12/15 06:56:34;;;;;;;24.70;12.95;;;;;;;-6.70;76.95;100771.38;5089249;28;20035;-90
2022/12/15 06:59:01;;;;;;;29.70;15.00;;;;;;;-6.73;75.55;100755.00;5089945;28;20395;-91
2022/12/15 07:01:26;;;;;;;32.85;15.88;;;;;;;-6.71;76.44;100749.09;5081736;28;20026;-90
2022/12/15 07:03:52;;;;;;;34.10;16.02;;;;;;;-6.59;76.45;100763.09;5091349;28;20031;-90
2022/12/15 07:06:18;;;;;;;35.25;17.45;;;;;;;-6.57;76.22;100762.31;5081778;28;20047;-90
2022/12/15 07:08:51;;;;;;;31.15;15.68;;;;;;;-6.59;76.55;100747.66;5081783;28;20487;-90
2022/12/15 07:11:16;;;;;;;36.15;15.90;;;;;;;-6.54;76.52;100756.38;5097206;28;20065;-90
2022/12/15 07:13:42;;;;;;;31.88;15.60;;;;;;;-6.61;75.95;100754.50;5082276;28;20336;-90
2022/12/15 07:16:09;;;;;;;36.28;15.48;;;;;;;-6.57;76.42;100766.59;5075263;28;20036;-91
2022/12/15 07:18:35;;;;;;;34.25;16.95;;;;;;;-6.51;76.21;100777.91;5095000;28;20474;-90
2022/12/15 07:21:03;;;;;;;36.47;17.13;;;;;;;-6.46;76.20;100786.63;5075293;28;20119;-89
2022/12/15 07:23:29;;;;;;;28.75;14.77;;;;;;;-6.62;74.75;100766.47;5073228;28;20024;-89
2022/12/15 07:25:54;;;;;;;29.15;14.77;;;;;;;-6.69;74.36;100774.81;5077530;28;20027;-89
2022/12/15 07:28:19;;;;;;;30.17;14.75;;;;;;;-6.75;75.11;100774.66;5088462;28;20020;-89
2022/12/15 07:30:45;;;;;;;31.48;14.90;;;;;;;-6.76;75.21;100775.47;5076374;28;20031;-90
2022/12/15 07:33:10;;;;;;;33.15;15.38;;;;;;;-6.71;74.79;100787.66;5075628;28;20490;-90
2022/12/15 07:35:35;;;;;;;30.50;14.77;;;;;;;-6.77;75.66;100779.75;5071755;28;20055;-90
2022/12/15 07:38:05;;;;;;;37.65;17.15;;;;;;;-6.69;76.31;100773.13;5083906;28;20028;-90
2022/12/15 07:40:31;;;;;;;35.75;18.92;;;;;;;-6.59;78.13;100774.25;5076936;28;20123;-90
2022/12/15 07:42:56;;;;;;;37.53;18.65;;;;;;;-6.48;78.45;100782.25;5100996;28;20428;-90
2022/12/15 07:45:21;;;;;;;33.50;16.38;;;;;;;-6.50;77.11;100779.66;5074330;28;20281;-90
2022/12/15 07:47:49;;;;;;;31.33;16.02;;;;;;;-6.49;76.74;100783.09;5074113;28;20580;-90
2022/12/15 07:50:14;;;;;;;38.20;16.75;;;;;;;-6.46;76.55;100786.63;5080883;28;20068;-90
2022/12/15 07:52:39;;;;;;;31.52;16.05;;;;;;;-6.44;76.37;100784.09;5094535;28;20034;-90
2022/12/15 07:55:05;;;;;;;31.33;16.30;;;;;;;-6.41;76.62;100779.03;5076716;28;20023;-90
2022/12/15 07:57:31;;;;;;;33.75;16.40;;;;;;;-6.35;76.21;100792.06;5076751;28;20134;-89
2022/12/15 07:59:57;;;;;;;37.40;16.20;;;;;;;-6.36;76.53;100787.75;5091988;28;20084;-89
2022/12/15 08:02:22;;;;;;;37.42;17.42;;;;;;;-6.32;77.29;100786.13;5077420;28;20095;-89
2022/12/15 08:04:47;;;;;;;34.00;16.52;;;;;;;-6.31;77.46;100793.00;5075147;28;20117;-90
2022/12/15 08:07:12;;;;;;;43.03;18.90;;;;;;;-6.41;77.18;100779.03;5086774;28;20028;-89
2022/12/15 08:09:38;;;;;;;34.38;18.45;;;;;;;-6.30;77.35;100808.47;5080965;28;20471;-90
2022/12/15 08:12:03;;;;;;;34.67;16.38;;;;;;;-6.32;77.30;100799.00;5074141;28;20031;-90
2022/12/15 08:14:29;;;;;;;34.10;18.10;;;;;;;-6.29;76.80;100802.53;5073845;28;20486;-90
2022/12/15 08:16:54;;;;;;;39.28;17.98;;;;;;;-6.27;76.28;100803.44;5103377;28;20158;-89
2022/12/15 08:19:20;;;;;;;38.03;17.33;;;;;;;-6.15;76.30;100823.50;5084816;28;20035;-89
2022/12/15 08:21:46;;;;;;;33.60;17.77;;;;;;;-6.14;76.49;100808.91;5077711;28;20024;-90
2022/12/15 08:24:13;;;;;;;37.15;18.10;;;;;;;-6.04;76.35;100813.47;5074133;28;21963;-90
2022/12/15 08:26:39;;;;;;;38.92;18.17;;;;;;;-5.94;76.21;100808.59;5073546;28;20308;-90
2022/12/15 08:29:06;;;;;;;32.30;17.50;;;;;;;-5.73;76.86;100809.97;5075652;28;20028;-89
2022/12/15 08:31:32;;;;;;;43.20;21.77;;;;;;;-5.45;77.30;100806.34;5076931;28;20024;-89
2022/12/15 08:34:02;;;;;;;38.08;17.98;;;;;;;-5.23;75.96;100815.44;5074405;28;20114;-89
2022/12/15 08:36:28;;;;;;;34.45;19.02;;;;;;;-5.33;75.32;100791.16;5077931;28;20061;-90
2022/12/15 08:38:57;;;;;;;38.45;18.52;;;;;;;-4.96;75.29;100822.94;5093064;28;20483;-90
2022/12/15 08:41:28;;;;;;;46.33;19.10;;;;;;;-4.93;76.05;100803.25;5075446;28;20023;-89
2022/12/15 08:43:58;;;;;;;44.67;20.55;;;;;;;-4.65;76.00;100820.19;5079919;28;20034;-90
2022/12/15 08:46:29;;;;;;;41.28;18.92;;;;;;;-4.31;76.19;100830.34;5083601;28;20437;-90
2022/12/15 08:48:56;;;;;;;34.45;18.38;;;;;;;-4.23;76.09;100792.66;5090778;28;20049;-89
2022/12/15 08:51:22;;;;;;;39.25;21.08;;;;;;;-3.56;76.81;100822.25;5106286;28;20051;-88
2022/12/15 08:53:48;;;;;;;42.20;20.98;;;;;;;-3.16;75.72;100795.31;5085286;28;20038;-89
2022/12/15 08:56:19;;;;;;;39.45;21.00;;;;;;;-2.67;74.90;100823.56;5084867;28;20040;-89
2022/12/15 08:58:45;;;;;;;39.67;20.55;;;;;;;-2.62;73.49;100807.25;5086028;28;20046;-90
2022/12/15 09:01:16;;;;;;;39.60;19.92;;;;;;;-2.18;71.33;100826.78;5081191;28;20040;-88
2022/12/15 09:03:41;;;;;;;42.28;20.55;;;;;;;-2.29;70.68;100823.19;5106715;28;20093;-89
2022/12/15 09:06:13;;;;;;;42.75;22.42;;;;;;;-2.05;70.26;100831.25;5080808;28;20023;-89
2022/12/15 09:08:39;;;;;;;42.30;23.05;;;;;;;-1.68;68.40;100811.75;5087953;28;20027;-89
2022/12/15 09:11:04;;;;;;;42.92;22.95;;;;;;;-1.38;66.66;100846.59;5104451;28;20103;-90
2022/12/15 09:13:30;;;;;;;39.60;21.85;;;;;;;-1.01;66.04;100841.69;5101186;28;20027;-88
2022/12/15 09:16:01;;;;;;;44.83;22.95;;;;;;;-0.97;65.55;100830.47;5103363;28;20045;-90
2022/12/15 09:18:27;;;;;;;38.92;22.52;;;;;;;-1.15;66.43;100845.03;5085149;28;20035;-90
2022/12/15 09:20:53;;;;;;;42.85;22.88;;;;;;;-1.00;68.37;100839.09;5088980;28;20032;-90
2022/12/15 09:23:19;;;;;;;44.97;22.92;;;;;;;0.28;65.02;100845.69;5085917;28;20474;-90
2022/12/15 09:25:45;;;;;;;51.25;23.13;;;;;;;1.73;62.83;100846.44;5080070;28;20110;-91
2022/12/15 09:28:11;;;;;;;43.80;23.45;;;;;;;2.32;57.04;100840.91;5096980;28;20446;-90
2022/12/15 09:30:36;;;;;;;41.72;22.65;;;;;;;1.92;57.69;100854.19;5075830;28;20024;-91
2022/12/15 09:33:01;;;;;;;42.13;23.77;;;;;;;1.21;58.98;100850.91;5080629;28;20085;-90
2022/12/15 09:35:27;;;;;;;43.40;23.77;;;;;;;1.10;58.72;100876.97;5079197;28;20389;-90
2022/12/15 09:37:52;;;;;;;42.10;22.85;;;;;;;1.96;58.04;100869.81;5079646;28;20031;-89
2022/12/15 09:40:18;;;;;;;41.65;21.42;;;;;;;2.97;55.45;100876.09;5100915;28;20035;-89
2022/12/15 09:42:50;;;;;;;43.92;22.92;;;;;;;2.97;55.58;100876.97;5077003;28;20081;-89
2022/12/15 09:45:20;;;;;;;37.40;20.20;;;;;;;3.28;56.60;100872.31;5079387;28;20020;-89
2022/12/15 09:47:52;;;;;;;37.33;21.55;;;;;;;4.63;53.71;100877.63;5081402;28;20046;-89
2022/12/15 09:50:25;;;;;;;39.83;21.83;;;;;;;6.67;51.97;100883.34;5105513;28;20475;-90
2022/12/15 09:52:59;;;;;;;38.95;22.38;;;;;;;7.73;46.81;100873.59;5087429;28;20509;-90
2022/12/15 09:55:27;;;;;;;39.03;21.63;;;;;;;8.44;43.81;100880.34;5090081;28;20026;-90
2022/12/15 09:58:06;;;;;;;35.28;18.45;;;;;;;9.06;43.11;100888.00;5080688;28;20027;-90
2022/12/15 10:01:10;;;;;;;36.58;19.33;;;;;;;8.99;44.38;100886.47;5098566;28;20030;-90
2022/12/15 10:03:58;;;;;;;35.17;20.23;;;;;;;9.18;44.05;100882.31;5058454;28;20028;-90
2022/12/15 10:06:29;;;;;;;33.50;20.17;;;;;;;10.00;40.69;100879.44;5092888;28;20031;-90
2022/12/15 10:09:01;;;;;;;32.63;18.50;;;;;;;9.76;38.65;100881.22;5100648;28;20045;-90
2022/12/15 10:11:54;;;;;;;37.35;20.98;;;;;;;10.59;42.75;100885.13;5098771;28;20371;-90
2022/12/15 10:14:40;;;;;;;35.95;20.27;;;;;;;11.22;40.65;100871.97;5092966;28;20046;-89
2022/12/15 10:17:24;;;;;;;32.88;20.80;;;;;;;12.08;36.50;100870.88;5093859;28;20112;-90
2022/12/15 10:20:16;;;;;;;34.25;19.50;;;;;;;12.22;37.28;100876.41;5075567;28;20241;-90
2022/12/15 10:22:41;;;;;;;31.15;19.67;;;;;;;12.27;34.78;100876.19;5076240;28;20028;-90
2022/12/15 10:25:23;;;;;;;34.40;18.67;;;;;;;12.59;36.49;100874.63;5076586;28;20043;-89
2022/12/15 10:28:00;;;;;;;29.87;19.03;;;;;;;12.76;35.53;100874.69;5094311;28;20036;-90
2022/12/15 10:30:26;;;;;;;29.25;19.45;;;;;;;12.76;34.29;100866.72;5075839;28;20336;-90
2022/12/15 10:33:19;;;;;;;32.83;18.67;;;;;;;13.36;36.18;100872.59;5081272;28;20024;-89
2022/12/15 10:35:45;;;;;;;;;;;;;;;13.95;39.34;100883.72;5095587;28;20048;-90
2022/12/15 10:38:30;;;;;;;30.23;17.42;;;;;;;14.55;35.20;100876.00;5096908;28;20278;-90
2022/12/15 10:40:59;;;;;;;33.38;20.10;;;;;;;14.02;30.32;100877.97;5096732;28;20492;-90
2022/12/15 10:43:27;;;;;;;30.65;19.25;;;;;;;13.58;33.06;100885.66;5100840;28;20562;-90
2022/12/15 10:46:20;;;;;;;33.38;20.67;;;;;;;12.75;32.99;100865.88;5101291;28;20356;-91
2022/12/15 10:49:07;;;;;;;32.42;19.35;;;;;;;13.44;34.91;100870.41;5083334;28;20039;-91
2022/12/15 10:51:41;;;;;;;30.65;19.10;;;;;;;14.15;31.46;100872.00;5082043;28;20071;-90
2022/12/15 10:54:08;;;;;;;34.35;19.65;;;;;;;14.61;31.11;100872.13;5092317;28;20368;-90
2022/12/15 10:56:44;;;;;;;29.02;18.63;;;;;;;14.43;30.22;100879.31;5081323;28;20376;-90
2022/12/15 10:59:22;;;;;;;32.17;20.45;;;;;;;14.11;33.16;100876.59;5095735;28;20039;-91
2022/12/15 11:01:47;;;;;;;29.33;19.40;;;;;;;14.76;32.77;100885.41;5101830;28;20035;-91
2022/12/15 11:04:26;;;;;;;31.60;20.23;;;;;;;14.42;30.66;100881.13;5079438;28;20015;-90
2022/12/15 11:06:56;;;;;;;35.85;21.60;;;;;;;13.36;30.58;100879.72;5092630;28;20055;-90
2022/12/15 11:09:34;;;;;;;32.75;21.90;;;;;;;13.57;32.24;100869.75;5084094;28;20526;-90
2022/12/15 11:14:49;;;;;;;32.63;19.90;;;;;;;13.10;34.15;100892.47;5097947;28;21062;-91
2022/12/15 11:17:20;;;;;;;32.30;21.08;;;;;;;11.41;33.72;100887.91;5079988;28;20426;-91
2022/12/15 11:19:59;;;;;;;29.88;20.52;;;;;;;11.86;35.17;100868.34;5092290;28;20034;-91
2022/12/15 11:22:45;;;;;;;29.15;20.55;;;;;;;11.13;35.68;100862.63;5075293;28;20035;-90
2022/12/15 11:25:28;;;;;;;30.92;19.75;;;;;;;10.87;37.02;100855.78;5072326;28;20020;-90
2022/12/15 11:27:56;;;;;;;32.45;21.33;;;;;;;11.36;34.07;100861.66;5080877;28;20035;-90
2022/12/15 11:30:25;;;;;;;29.63;19.67;;;;;;;12.32;33.57;100871.53;5094298;28;20020;-90
2022/12/15 11:32:56;;;;;;;31.10;20.50;;;;;;;11.80;32.22;100866.78;5097095;28;20032;-90
2022/12/15 11:35:32;;;;;;;35.33;21.20;;;;;;;11.72;34.07;100880.38;5074690;28;20537;-91
2022/12/15 11:38:21;;;;;;;34.20;21.73;;;;;;;12.16;32.90;100866.06;5088037;27;20039;-90
2022/12/15 11:40:48;;;;;;;33.17;22.05;;;;;;;12.36;33.73;100868.66;5072621;28;20059;-91
2022/12/15 11:43:43;;;;;;;33.25;20.92;;;;;;;13.23;33.45;100868.84;5080879;28;20058;-90
2022/12/15 11:46:19;;;;;;;28.85;20.30;;;;;;;13.69;32.18;100871.78;5036294;28;20043;-90
2022/12/15 11:49:04;;;;;;;37.42;23.08;;;;;;;13.99;32.06;100866.66;5081038;28;20055;-90
2022/12/15 11:51:48;;;;;;;33.40;21.63;;;;;;;13.83;32.80;100866.59;5098960;28;20058;-90
2022/12/15 11:54:28;;;;;;;33.60;20.80;;;;;;;13.22;32.82;100854.72;5087143;28;20031;-91
2022/12/15 11:57:18;;;;;;;33.03;21.65;;;;;;;13.92;31.11;100863.44;5070083;28;20380;-89
2022/12/15 12:00:04;;;;;;;31.98;21.52;;;;;;;14.54;30.20;100872.47;5088069;28;20499;-89
2022/12/15 12:02:51;;;;;;;37.13;23.25;;;;;;;15.01;28.76;100857.38;5076622;28;20038;-91
2022/12/15 12:05:36;;;;;;;35.55;24.42;;;;;;;15.09;30.24;100857.78;5073302;28;20024;-90
2022/12/15 12:08:31;;;;;;;35.13;22.85;;;;;;;14.59;30.71;100842.94;5081181;28;20474;-90
2022/12/15 12:11:19;;;;;;;32.83;22.67;;;;;;;14.19;31.83;100850.47;5072930;28;20012;-90
2022/12/15 12:13:45;;;;;;;36.13;25.15;;;;;;;13.07;31.49;100839.53;5095864;28;20028;-90
2022/12/15 12:16:34;;;;;;;36.38;25.30;;;;;;;11.84;32.38;100844.53;5076562;28;20525;-90
2022/12/15 12:19:11;;;;;;;37.90;24.45;;;;;;;12.49;33.85;100835.28;5081181;28;20066;-90
2022/12/15 12:21:44;;;;;;;39.60;23.40;;;;;;;13.47;33.02;100833.06;5087863;28;20028;-90
2022/12/15 12:24:12;;;;;;;36.65;22.50;;;;;;;13.30;32.31;100837.56;5092146;28;20032;-90
2022/12/15 12:26:44;;;;;;;33.65;22.45;;;;;;;11.89;34.03;100817.84;5100897;28;20028;-90
2022/12/15 12:29:27;;;;;;;40.45;22.92;;;;;;;11.45;35.13;100833.91;5077932;28;20100;-90
2022/12/15 12:31:52;;;;;;;;;;;;;;;11.55;36.05;100840.53;5076985;28;20856;-91
2022/12/15 12:34:41;;;;;;;41.33;23.65;;;;;;;11.03;34.85;100844.56;5079857;28;19916;-89
2022/12/15 12:37:25;;;;;;;34.22;21.98;;;;;;;11.40;36.04;100833.25;5075114;28;20039;-90
2022/12/15 12:39:52;;;;;;;35.25;22.48;;;;;;;11.91;34.06;100839.84;5076034;28;20069;-90
2022/12/15 12:42:36;;;;;;;38.72;23.50;;;;;;;12.03;33.45;100833.09;5077751;28;20459;-89
2022/12/15 12:45:02;;;;;;;37.70;23.20;;;;;;;12.29;33.90;100838.06;5081554;28;20024;-90
2022/12/15 12:47:31;;;;;;;33.67;22.42;;;;;;;12.20;34.40;100838.50;5096865;28;20047;-89
2022/12/15 12:50:01;;;;;;;33.72;20.98;;;;;;;12.96;33.16;100836.56;5075621;28;20044;-90
2022/12/15 12:52:34;;;;;;;37.00;22.58;;;;;;;13.00;32.92;100807.13;5075653;28;20041;-91
2022/12/15 12:55:23;;;;;;;35.65;22.75;;;;;;;13.70;32.73;100810.59;5088035;28;20051;-90
2022/12/15 12:57:48;;;;;;;30.17;20.50;;;;;;;14.20;30.82;100822.94;5083299;28;20055;-90
2022/12/15 13:00:16;;;;;;;33.42;21.27;;;;;;;14.11;30.56;100819.94;5098555;28;20030;-90
2022/12/15 13:02:50;;;;;;;32.63;20.25;;;;;;;14.18;31.00;100819.50;5070658;28;20445;-90
2022/12/15 13:05:30;;;;;;;36.85;21.10;;;;;;;13.82;31.62;100810.88;5076272;28;20020;-90
2022/12/15 13:08:04;;;;;;;30.92;21.92;;;;;;;12.51;32.23;100820.19;5096990;28;20077;-91
2022/12/15 13:10:43;;;;;;;34.92;22.73;;;;;;;11.28;34.62;100815.25;5082439;28;20499;-90
2022/12/15 13:13:17;;;;;;;41.13;22.00;;;;;;;11.28;35.41;100817.91;5079419;28;20097;-91
2022/12/15 13:15:47;;;;;;;39.60;21.23;;;;;;;11.45;35.64;100803.00;5090428;28;20302;-91
2022/12/15 13:18:22;;;;;;;36.67;20.98;;;;;;;11.10;35.93;100798.41;5084005;28;20019;-92
2022/12/15 13:20:52;;;;;;;40.80;22.42;;;;;;;10.71;36.90;100788.56;5085568;28;20352;-91
2022/12/15 13:23:20;;;;;;;32.28;21.80;;;;;;;10.17;38.01;100793.38;5070941;28;20050;-91
2022/12/15 13:25:52;;;;;;;41.65;22.95;;;;;;;9.40;38.77;100789.22;5077715;28;20047;-91
2022/12/15 13:28:26;;;;;;;38.27;23.40;;;;;;;8.61;41.37;100790.19;5077476;28;20471;-90
2022/12/15 13:31:16;;;;;;;35.63;23.45;;;;;;;7.62;42.33;100788.84;5088956;28;20382;-91
2022/12/15 13:33:47;;;;;;;36.38;22.15;;;;;;;7.90;43.07;100792.38;5075606;28;20027;-91
2022/12/15 13:36:36;;;;;;;34.75;22.50;;;;;;;8.11;42.60;100780.34;5086793;28;20471;-89
2022/12/15 13:39:15;;;;;;;39.85;23.30;;;;;;;8.16;42.43;100756.50;5083772;28;20040;-90
2022/12/15 13:41:41;;;;;;;39.47;22.67;;;;;;;8.07;42.41;100781.34;5100051;28;20569;-91
2022/12/15 13:44:33;;;;;;;37.63;22.88;;;;;;;8.31;42.50;100785.00;5103453;28;20039;-91
2022/12/15 13:47:15;;;;;;;;;;;;;;;9.08;40.88;100785.94;5093105;28;20034;-90
2022/12/15 13:49:50;;;;;;;37.60;21.98;;;;;;;8.88;41.93;100784.00;5078175;28;19966;-90
2022/12/15 13:52:22;;;;;;;34.88;22.75;;;;;;;8.09;43.40;100787.41;5085038;28;20335;-90
2022/12/15 13:54:54;;;;;;;37.75;23.15;;;;;;;7.55;44.50;100787.28;5111456;28;20046;-91